sensor_id;sensor_type;location;lat;lon;timestamp;pressure;altitude;pressure_sealevel;temperature;humidity
34177;BME280;20450;49.074;9.158;2024-03-29T00:00:44;98056.31;;;9.44;52.27
34177;BME280;20450;49.074;9.158;2024-03-29T00:03:10;98053.44;;;9.34;52.62
34177;BME280;20450;49.074;9.158;2024-03-29T00:05:36;98058.69;;;9.41;52.91
34177;BME280;20450;49.074;9.158;2024-03-29T00:08:03;98051.56;;;9.35;52.42
34177;BME280;20450;49.074;9.158;2024-03-29T00:10:30;98038.75;;;9.42;52.95
34177;BME280;20450;49.074;9.158;2024-03-29T00:12:57;98054.03;;;9.53;51.55
34177;BME280;20450;49.074;9.158;2024-03-29T00:15:24;98048.84;;;9.68;51.29
34177;BME280;20450;49.074;9.158;2024-03-29T00:17:50;98041.16;;;9.76;50.45
34177;BME280;20450;49.074;9.158;2024-03-29T00:20:16;98042.47;;;9.74;51.00
34177;BME280;20450;49.074;9.158;2024-03-29T00:22:43;98033.81;;;9.72;51.13
34177;BME280;20450;49.074;9.158;2024-03-29T00:25:09;98030.63;;;9.75;51.32
34177;BME280;20450;49.074;9.158;2024-03-29T00:27:35;98024.19;;;9.76;50.73
34177;BME280;20450;49.074;9.158;2024-03-29T00:30:03;98013.41;;;9.76;51.20
34177;BME280;20450;49.074;9.158;2024-03-29T00:32:29;98005.72;;;9.68;52.09
34177;BME280;20450;49.074;9.158;2024-03-29T00:34:55;97993.63;;;9.70;51.98
34177;BME280;20450;49.074;9.158;2024-03-29T00:37:21;97984.06;;;9.63;52.20
34177;BME280;20450;49.074;9.158;2024-03-29T00:39:47;97977.31;;;9.60;51.65
34177;BME280;20450;49.074;9.158;2024-03-29T00:42:13;97976.72;;;9.58;51.87
34177;BME280;20450;49.074;9.158;2024-03-29T00:44:39;97996.75;;;9.62;52.43
34177;BME280;20450;49.074;9.158;2024-03-29T00:47:07;97992.00;;;9.69;51.83
34177;BME280;20450;49.074;9.158;2024-03-29T00:49:33;97990.75;;;9.77;51.68
34177;BME280;20450;49.074;9.158;2024-03-29T00:51:59;97991.31;;;9.79;51.40
34177;BME280;20450;49.074;9.158;2024-03-29T00:54:26;97985.41;;;9.82;52.09
34177;BME280;20450;49.074;9.158;2024-03-29T00:56:52;97980.53;;;9.79;52.30
34177;BME280;20450;49.074;9.158;2024-03-29T00:59:18;97975.69;;;9.81;51.69
34177;BME280;20450;49.074;9.158;2024-03-29T01:01:45;97974.38;;;9.83;52.25
34177;BME280;20450;49.074;9.158;2024-03-29T01:04:12;97969.78;;;9.84;51.78
34177;BME280;20450;49.074;9.158;2024-03-29T01:06:39;97955.94;;;9.97;51.77
34177;BME280;20450;49.074;9.158;2024-03-29T01:09:05;97943.16;;;9.87;52.81
34177;BME280;20450;49.074;9.158;2024-03-29T01:11:32;97941.91;;;9.95;52.54
34177;BME280;20450;49.074;9.158;2024-03-29T01:13:58;97936.72;;;10.10;51.40
34177;BME280;20450;49.074;9.158;2024-03-29T01:16:24;97952.22;;;10.03;50.90
34177;BME280;20450;49.074;9.158;2024-03-29T01:18:50;97959.16;;;10.16;52.21
34177;BME280;20450;49.074;9.158;2024-03-29T01:21:18;97963.19;;;10.13;51.29
34177;BME280;20450;49.074;9.158;2024-03-29T01:23:44;97975.16;;;10.22;50.99
34177;BME280;20450;49.074;9.158;2024-03-29T01:26:10;97985.97;;;10.22;51.50
34177;BME280;20450;49.074;9.158;2024-03-29T01:28:36;97965.53;;;10.31;51.52
34177;BME280;20450;49.074;9.158;2024-03-29T01:31:02;97963.88;;;10.25;51.51
34177;BME280;20450;49.074;9.158;2024-03-29T01:33:28;97962.72;;;10.21;51.50
34177;BME280;20450;49.074;9.158;2024-03-29T01:35:54;97947.34;;;10.22;51.05
34177;BME280;20450;49.074;9.158;2024-03-29T01:38:22;97957.91;;;10.23;51.37
34177;BME280;20450;49.074;9.158;2024-03-29T01:40:48;97964.72;;;10.31;51.12
34177;BME280;20450;49.074;9.158;2024-03-29T01:43:14;97965.84;;;10.35;51.52
34177;BME280;20450;49.074;9.158;2024-03-29T01:45:41;97966.16;;;10.38;51.50
34177;BME280;20450;49.074;9.158;2024-03-29T01:48:09;97943.41;;;10.34;50.90
34177;BME280;20450;49.074;9.158;2024-03-29T01:50:36;97935.31;;;10.34;51.89
34177;BME280;20450;49.074;9.158;2024-03-29T01:53:05;97939.94;;;10.34;51.56
34177;BME280;20450;49.074;9.158;2024-03-29T01:55:35;97921.56;;;10.36;51.36
34177;BME280;20450;49.074;9.158;2024-03-29T01:58:02;97913.28;;;10.42;51.14
34177;BME280;20450;49.074;9.158;2024-03-29T02:00:29;97909.47;;;10.38;51.46
34177;BME280;20450;49.074;9.158;2024-03-29T02:03:00;97903.50;;;10.36;51.98
34177;BME280;20450;49.074;9.158;2024-03-29T02:05:27;97909.66;;;10.32;52.32
34177;BME280;20450;49.074;9.158;2024-03-29T02:07:54;97923.22;;;10.37;51.12
34177;BME280;20450;49.074;9.158;2024-03-29T02:10:20;97919.69;;;10.36;51.13
34177;BME280;20450;49.074;9.158;2024-03-29T02:12:48;97916.50;;;10.39;50.66
34177;BME280;20450;49.074;9.158;2024-03-29T02:15:15;97917.09;;;10.46;51.60
34177;BME280;20450;49.074;9.158;2024-03-29T02:17:41;97922.22;;;10.48;51.56
34177;BME280;20450;49.074;9.158;2024-03-29T02:20:08;97915.16;;;10.42;51.57
34177;BME280;20450;49.074;9.158;2024-03-29T02:22:36;97910.53;;;10.37;52.08
34177;BME280;20450;49.074;9.158;2024-03-29T02:25:13;97906.81;;;10.43;52.09
34177;BME280;20450;49.074;9.158;2024-03-29T02:27:39;97912.69;;;10.35;51.92
34177;BME280;20450;49.074;9.158;2024-03-29T02:30:06;97911.69;;;10.46;52.63
34177;BME280;20450;49.074;9.158;2024-03-29T02:32:33;97929.22;;;10.44;51.48
34177;BME280;20450;49.074;9.158;2024-03-29T02:34:59;97927.88;;;10.46;52.63
34177;BME280;20450;49.074;9.158;2024-03-29T02:37:25;97917.84;;;10.42;51.80
34177;BME280;20450;49.074;9.158;2024-03-29T02:39:51;97930.50;;;10.36;52.49
34177;BME280;20450;49.074;9.158;2024-03-29T02:42:18;97907.31;;;10.40;51.77
34177;BME280;20450;49.074;9.158;2024-03-29T02:44:46;97913.53;;;10.41;52.90
34177;BME280;20450;49.074;9.158;2024-03-29T02:47:12;97919.03;;;10.51;52.63
34177;BME280;20450;49.074;9.158;2024-03-29T02:49:38;97915.53;;;10.50;52.49
34177;BME280;20450;49.074;9.158;2024-03-29T02:52:04;97923.56;;;10.45;53.18
34177;BME280;20450;49.074;9.158;2024-03-29T02:54:30;97914.81;;;10.33;52.98
34177;BME280;20450;49.074;9.158;2024-03-29T02:56:56;97919.09;;;10.29;52.92
34177;BME280;20450;49.074;9.158;2024-03-29T02:59:23;97913.63;;;10.24;53.22
34177;BME280;20450;49.074;9.158;2024-03-29T03:01:49;97922.31;;;10.26;53.84
34177;BME280;20450;49.074;9.158;2024-03-29T03:04:15;97913.28;;;10.16;53.93
34177;BME280;20450;49.074;9.158;2024-03-29T03:06:41;97921.06;;;10.12;54.22
34177;BME280;20450;49.074;9.158;2024-03-29T03:09:07;97920.56;;;10.15;53.68
34177;BME280;20450;49.074;9.158;2024-03-29T03:11:33;97918.50;;;10.22;53.96
34177;BME280;20450;49.074;9.158;2024-03-29T03:13:59;97923.13;;;10.27;53.04
34177;BME280;20450;49.074;9.158;2024-03-29T03:16:26;97931.84;;;10.34;53.55
34177;BME280;20450;49.074;9.158;2024-03-29T03:18:52;97921.56;;;10.36;52.89
34177;BME280;20450;49.074;9.158;2024-03-29T03:21:18;97918.53;;;10.27;53.99
34177;BME280;20450;49.074;9.158;2024-03-29T03:23:44;97929.06;;;10.29;54.08
34177;BME280;20450;49.074;9.158;2024-03-29T03:26:10;97920.28;;;10.38;54.05
34177;BME280;20450;49.074;9.158;2024-03-29T03:28:36;97917.34;;;10.18;54.11
34177;BME280;20450;49.074;9.158;2024-03-29T03:31:03;97960.00;;;10.43;54.55
34177;BME280;20450;49.074;9.158;2024-03-29T03:33:30;97986.84;;;10.54;54.20
34177;BME280;20450;49.074;9.158;2024-03-29T03:35:56;97969.13;;;10.42;52.37
34177;BME280;20450;49.074;9.158;2024-03-29T03:38:22;97934.13;;;10.20;53.74
34177;BME280;20450;49.074;9.158;2024-03-29T03:40:48;97956.91;;;10.08;54.43
34177;BME280;20450;49.074;9.158;2024-03-29T03:43:14;98025.47;;;10.33;55.27
34177;BME280;20450;49.074;9.158;2024-03-29T03:45:41;98007.59;;;10.27;54.74
34177;BME280;20450;49.074;9.158;2024-03-29T03:48:08;97966.06;;;10.07;56.02
34177;BME280;20450;49.074;9.158;2024-03-29T03:50:36;97977.72;;;10.12;54.19
34177;BME280;20450;49.074;9.158;2024-03-29T03:53:03;98062.31;;;10.44;54.69
34177;BME280;20450;49.074;9.158;2024-03-29T03:55:29;98027.84;;;10.51;56.64
34177;BME280;20450;49.074;9.158;2024-03-29T03:57:55;97992.38;;;10.43;55.15
34177;BME280;20450;49.074;9.158;2024-03-29T04:00:22;97986.25;;;10.26;55.04
34177;BME280;20450;49.074;9.158;2024-03-29T04:02:48;97964.38;;;10.22;56.56
34177;BME280;20450;49.074;9.158;2024-03-29T04:05:15;97950.81;;;10.17;56.50
34177;BME280;20450;49.074;9.158;2024-03-29T04:07:43;97938.84;;;10.08;56.32
34177;BME280;20450;49.074;9.158;2024-03-29T04:10:10;97942.66;;;10.12;56.86
34177;BME280;20450;49.074;9.158;2024-03-29T04:12:36;97922.81;;;10.23;56.21
34177;BME280;20450;49.074;9.158;2024-03-29T04:15:03;97928.22;;;10.23;55.57
34177;BME280;20450;49.074;9.158;2024-03-29T04:17:30;97902.59;;;10.26;56.15
34177;BME280;20450;49.074;9.158;2024-03-29T04:19:57;97904.03;;;10.33;55.02
34177;BME280;20450;49.074;9.158;2024-03-29T04:22:23;97904.88;;;10.39;54.13
34177;BME280;20450;49.074;9.158;2024-03-29T04:24:50;97903.59;;;10.46;54.65
34177;BME280;20450;49.074;9.158;2024-03-29T04:27:17;97899.88;;;10.52;54.94
34177;BME280;20450;49.074;9.158;2024-03-29T04:29:43;97907.47;;;10.55;53.38
34177;BME280;20450;49.074;9.158;2024-03-29T04:32:09;97920.13;;;10.81;50.77
34177;BME280;20450;49.074;9.158;2024-03-29T04:34:35;97910.47;;;10.95;50.73
34177;BME280;20450;49.074;9.158;2024-03-29T04:37:00;97910.53;;;11.00;49.49
34177;BME280;20450;49.074;9.158;2024-03-29T04:39:27;97901.09;;;11.03;50.94
34177;BME280;20450;49.074;9.158;2024-03-29T04:41:54;97898.66;;;11.01;52.28
34177;BME280;20450;49.074;9.158;2024-03-29T04:44:24;97902.22;;;11.12;52.31
34177;BME280;20450;49.074;9.158;2024-03-29T04:46:50;97913.34;;;11.20;51.04
34177;BME280;20450;49.074;9.158;2024-03-29T04:49:19;97916.00;;;11.10;52.46
34177;BME280;20450;49.074;9.158;2024-03-29T04:51:45;97926.06;;;11.20;53.88
34177;BME280;20450;49.074;9.158;2024-03-29T04:54:11;97951.19;;;11.20;56.76
34177;BME280;20450;49.074;9.158;2024-03-29T04:56:37;97943.94;;;10.89;54.45
34177;BME280;20450;49.074;9.158;2024-03-29T04:59:04;97905.16;;;10.69;52.97
34177;BME280;20450;49.074;9.158;2024-03-29T05:01:30;97966.34;;;11.21;49.24
34177;BME280;20450;49.074;9.158;2024-03-29T05:03:56;97960.53;;;11.39;52.68
34177;BME280;20450;49.074;9.158;2024-03-29T05:06:22;97926.13;;;11.30;52.84
34177;BME280;20450;49.074;9.158;2024-03-29T05:08:48;97931.47;;;11.20;52.21
34177;BME280;20450;49.074;9.158;2024-03-29T05:11:14;97930.41;;;11.21;52.81
34177;BME280;20450;49.074;9.158;2024-03-29T05:13:40;97915.41;;;11.03;53.13
34177;BME280;20450;49.074;9.158;2024-03-29T05:16:07;97912.41;;;11.00;51.53
34177;BME280;20450;49.074;9.158;2024-03-29T05:18:34;97900.28;;;11.02;51.91
34177;BME280;20450;49.074;9.158;2024-03-29T05:21:00;97892.53;;;11.16;51.13
34177;BME280;20450;49.074;9.158;2024-03-29T05:23:26;97876.28;;;11.11;51.61
34177;BME280;20450;49.074;9.158;2024-03-29T05:25:52;97874.31;;;10.96;51.64
34177;BME280;20450;49.074;9.158;2024-03-29T05:28:18;97881.34;;;10.97;52.24
34177;BME280;20450;49.074;9.158;2024-03-29T05:30:44;97876.72;;;10.93;51.93
34177;BME280;20450;49.074;9.158;2024-03-29T05:33:11;97875.66;;;10.99;52.18
34177;BME280;20450;49.074;9.158;2024-03-29T05:35:37;97869.00;;;11.11;53.02
34177;BME280;20450;49.074;9.158;2024-03-29T05:38:04;97874.47;;;11.26;55.40
34177;BME280;20450;49.074;9.158;2024-03-29T05:40:30;97873.72;;;11.36;54.74
34177;BME280;20450;49.074;9.158;2024-03-29T05:42:56;97878.59;;;11.39;56.55
34177;BME280;20450;49.074;9.158;2024-03-29T05:45:24;97890.69;;;11.26;54.46
34177;BME280;20450;49.074;9.158;2024-03-29T05:47:52;97883.59;;;10.74;54.61
34177;BME280;20450;49.074;9.158;2024-03-29T05:50:21;97884.44;;;10.79;53.36
34177;BME280;20450;49.074;9.158;2024-03-29T05:52:48;97896.78;;;10.70;54.03
34177;BME280;20450;49.074;9.158;2024-03-29T05:55:14;97904.13;;;10.75;52.47
34177;BME280;20450;49.074;9.158;2024-03-29T05:57:40;97910.84;;;11.04;52.72
34177;BME280;20450;49.074;9.158;2024-03-29T06:00:07;97920.63;;;11.15;52.94
34177;BME280;20450;49.074;9.158;2024-03-29T06:02:34;97936.09;;;11.24;50.46
34177;BME280;20450;49.074;9.158;2024-03-29T06:05:00;97935.09;;;10.99;50.46
34177;BME280;20450;49.074;9.158;2024-03-29T06:07:28;97959.81;;;11.12;48.37
34177;BME280;20450;49.074;9.158;2024-03-29T06:09:54;97923.84;;;11.12;49.31
34177;BME280;20450;49.074;9.158;2024-03-29T06:12:20;97953.28;;;11.08;48.90
34177;BME280;20450;49.074;9.158;2024-03-29T06:14:46;97947.94;;;11.18;50.11
34177;BME280;20450;49.074;9.158;2024-03-29T06:17:12;97959.75;;;11.07;48.84
34177;BME280;20450;49.074;9.158;2024-03-29T06:19:39;97943.28;;;11.09;49.18
34177;BME280;20450;49.074;9.158;2024-03-29T06:22:04;97939.53;;;11.10;50.08
34177;BME280;20450;49.074;9.158;2024-03-29T06:24:32;97947.78;;;10.98;50.13
34177;BME280;20450;49.074;9.158;2024-03-29T06:26:58;97948.28;;;10.90;51.41
34177;BME280;20450;49.074;9.158;2024-03-29T06:29:24;97953.63;;;10.85;50.82
34177;BME280;20450;49.074;9.158;2024-03-29T06:31:50;97958.25;;;10.90;51.17
34177;BME280;20450;49.074;9.158;2024-03-29T06:34:16;97951.84;;;10.96;50.04
34177;BME280;20450;49.074;9.158;2024-03-29T06:36:42;97946.69;;;10.94;51.72
34177;BME280;20450;49.074;9.158;2024-03-29T06:39:07;97941.50;;;10.88;52.17
34177;BME280;20450;49.074;9.158;2024-03-29T06:41:38;97964.78;;;10.94;50.81
34177;BME280;20450;49.074;9.158;2024-03-29T06:44:19;97966.16;;;10.96;49.89
34177;BME280;20450;49.074;9.158;2024-03-29T06:46:45;97979.19;;;11.04;49.47
34177;BME280;20450;49.074;9.158;2024-03-29T06:49:12;97971.63;;;11.06;49.76
34177;BME280;20450;49.074;9.158;2024-03-29T06:51:38;97963.59;;;11.11;50.24
34177;BME280;20450;49.074;9.158;2024-03-29T06:54:04;97958.19;;;11.16;49.46
34177;BME280;20450;49.074;9.158;2024-03-29T06:56:30;97964.69;;;11.20;49.48
34177;BME280;20450;49.074;9.158;2024-03-29T06:58:58;97962.56;;;11.17;49.17
34177;BME280;20450;49.074;9.158;2024-03-29T07:01:24;97954.75;;;11.26;49.68
34177;BME280;20450;49.074;9.158;2024-03-29T07:03:50;97955.03;;;11.29;49.66
34177;BME280;20450;49.074;9.158;2024-03-29T07:06:16;97961.88;;;11.42;48.64
34177;BME280;20450;49.074;9.158;2024-03-29T07:08:42;97955.91;;;11.76;48.55
34177;BME280;20450;49.074;9.158;2024-03-29T07:11:08;97964.50;;;11.68;48.02
34177;BME280;20450;49.074;9.158;2024-03-29T07:13:34;97956.50;;;11.88;46.96
34177;BME280;20450;49.074;9.158;2024-03-29T07:16:02;97953.56;;;12.00;46.72
34177;BME280;20450;49.074;9.158;2024-03-29T07:18:29;97954.06;;;11.92;46.96
34177;BME280;20450;49.074;9.158;2024-03-29T07:20:55;97952.28;;;12.18;47.02
34177;BME280;20450;49.074;9.158;2024-03-29T07:23:21;97965.00;;;12.12;46.26
34177;BME280;20450;49.074;9.158;2024-03-29T07:25:57;97959.22;;;11.88;47.19
34177;BME280;20450;49.074;9.158;2024-03-29T07:28:24;97968.66;;;11.81;46.01
34177;BME280;20450;49.074;9.158;2024-03-29T07:30:50;97962.97;;;11.87;47.01
34177;BME280;20450;49.074;9.158;2024-03-29T07:33:17;97975.47;;;11.99;46.50
34177;BME280;20450;49.074;9.158;2024-03-29T07:35:43;97973.34;;;12.06;46.56
34177;BME280;20450;49.074;9.158;2024-03-29T07:38:09;97973.16;;;12.27;47.34
34177;BME280;20450;49.074;9.158;2024-03-29T07:40:35;97991.84;;;12.29;46.00
34177;BME280;20450;49.074;9.158;2024-03-29T07:43:01;97982.06;;;12.28;46.44
34177;BME280;20450;49.074;9.158;2024-03-29T07:45:27;97987.53;;;12.38;46.53
34177;BME280;20450;49.074;9.158;2024-03-29T07:47:54;97984.22;;;12.21;46.26
34177;BME280;20450;49.074;9.158;2024-03-29T07:50:21;97972.91;;;12.39;47.24
34177;BME280;20450;49.074;9.158;2024-03-29T07:52:47;97989.88;;;12.09;46.90
34177;BME280;20450;49.074;9.158;2024-03-29T07:55:13;97985.56;;;12.08;48.62
34177;BME280;20450;49.074;9.158;2024-03-29T07:57:39;97972.66;;;11.73;50.38
34177;BME280;20450;49.074;9.158;2024-03-29T08:00:06;97975.00;;;11.60;55.07
34177;BME280;20450;49.074;9.158;2024-03-29T08:02:33;97985.13;;;11.38;54.45
34177;BME280;20450;49.074;9.158;2024-03-29T08:04:59;97981.66;;;11.42;57.56
34177;BME280;20450;49.074;9.158;2024-03-29T08:07:26;97978.53;;;11.24;57.20
34177;BME280;20450;49.074;9.158;2024-03-29T08:09:52;97984.59;;;11.41;57.54
34177;BME280;20450;49.074;9.158;2024-03-29T08:12:18;98000.44;;;11.27;56.72
34177;BME280;20450;49.074;9.158;2024-03-29T08:14:47;97995.63;;;11.34;57.91
34177;BME280;20450;49.074;9.158;2024-03-29T08:17:13;97996.00;;;11.48;58.83
34177;BME280;20450;49.074;9.158;2024-03-29T08:19:40;97983.84;;;11.50;58.13
34177;BME280;20450;49.074;9.158;2024-03-29T08:22:06;97988.81;;;10.95;63.44
34177;BME280;20450;49.074;9.158;2024-03-29T08:24:33;97999.75;;;10.52;63.49
34177;BME280;20450;49.074;9.158;2024-03-29T08:27:01;98013.44;;;10.19;64.74
34177;BME280;20450;49.074;9.158;2024-03-29T08:29:30;98047.94;;;10.17;68.71
34177;BME280;20450;49.074;9.158;2024-03-29T08:31:56;98072.22;;;10.39;71.83
34177;BME280;20450;49.074;9.158;2024-03-29T08:34:22;98083.59;;;10.02;73.00
34177;BME280;20450;49.074;9.158;2024-03-29T08:36:48;98097.78;;;9.60;76.32
34177;BME280;20450;49.074;9.158;2024-03-29T08:39:15;98089.88;;;9.37;79.30
34177;BME280;20450;49.074;9.158;2024-03-29T08:41:42;98095.75;;;9.34;79.42
34177;BME280;20450;49.074;9.158;2024-03-29T08:44:11;98100.38;;;9.05;80.54
34177;BME280;20450;49.074;9.158;2024-03-29T08:46:37;98102.97;;;9.00;82.26
34177;BME280;20450;49.074;9.158;2024-03-29T08:49:03;98111.94;;;8.89;83.89
34177;BME280;20450;49.074;9.158;2024-03-29T08:51:29;98109.25;;;8.89;84.62
34177;BME280;20450;49.074;9.158;2024-03-29T08:53:55;98118.94;;;8.90;85.16
34177;BME280;20450;49.074;9.158;2024-03-29T08:56:21;98116.78;;;9.04;85.93
34177;BME280;20450;49.074;9.158;2024-03-29T08:58:49;98111.53;;;8.97;85.84
34177;BME280;20450;49.074;9.158;2024-03-29T09:01:18;98112.53;;;9.08;84.58
34177;BME280;20450;49.074;9.158;2024-03-29T09:03:44;98109.13;;;9.29;86.02
34177;BME280;20450;49.074;9.158;2024-03-29T09:06:13;98128.47;;;9.26;85.14
34177;BME280;20450;49.074;9.158;2024-03-29T09:08:39;98126.28;;;9.39;85.88
34177;BME280;20450;49.074;9.158;2024-03-29T09:11:06;98122.88;;;9.44;86.69
34177;BME280;20450;49.074;9.158;2024-03-29T09:13:32;98115.75;;;9.38;86.88
34177;BME280;20450;49.074;9.158;2024-03-29T09:16:00;98129.47;;;9.36;88.44
34177;BME280;20450;49.074;9.158;2024-03-29T09:18:26;98131.94;;;9.38;88.75
34177;BME280;20450;49.074;9.158;2024-03-29T09:20:58;98132.84;;;9.60;89.31
34177;BME280;20450;49.074;9.158;2024-03-29T09:23:25;98123.19;;;9.80;89.88
34177;BME280;20450;49.074;9.158;2024-03-29T09:25:51;98132.03;;;9.76;88.21
34177;BME280;20450;49.074;9.158;2024-03-29T09:28:17;98118.91;;;10.01;89.11
34177;BME280;20450;49.074;9.158;2024-03-29T09:30:43;98109.63;;;10.30;89.15
34177;BME280;20450;49.074;9.158;2024-03-29T09:33:11;98117.09;;;10.23;87.59
34177;BME280;20450;49.074;9.158;2024-03-29T09:35:37;98123.91;;;10.47;88.75
34177;BME280;20450;49.074;9.158;2024-03-29T09:38:03;98112.94;;;10.37;87.18
34177;BME280;20450;49.074;9.158;2024-03-29T09:40:29;98112.53;;;10.24;86.97
34177;BME280;20450;49.074;9.158;2024-03-29T09:42:56;98113.28;;;10.41;87.59
34177;BME280;20450;49.074;9.158;2024-03-29T09:45:25;98105.50;;;10.44;87.78
34177;BME280;20450;49.074;9.158;2024-03-29T09:47:52;98103.34;;;10.46;87.42
34177;BME280;20450;49.074;9.158;2024-03-29T09:50:22;98091.63;;;10.57;88.28
34177;BME280;20450;49.074;9.158;2024-03-29T09:52:50;98080.53;;;10.80;88.31
34177;BME280;20450;49.074;9.158;2024-03-29T09:55:18;98073.63;;;10.41;85.23
34177;BME280;20450;49.074;9.158;2024-03-29T09:57:47;98063.34;;;10.43;86.69
34177;BME280;20450;49.074;9.158;2024-03-29T10:00:13;98055.31;;;10.70;87.68
34177;BME280;20450;49.074;9.158;2024-03-29T10:02:40;98063.72;;;10.73;86.87
34177;BME280;20450;49.074;9.158;2024-03-29T10:05:08;98057.25;;;11.01;87.99
34177;BME280;20450;49.074;9.158;2024-03-29T10:07:39;98043.69;;;11.27;88.75
34177;BME280;20450;49.074;9.158;2024-03-29T10:10:07;98048.41;;;11.42;88.59
34177;BME280;20450;49.074;9.158;2024-03-29T10:12:33;98045.03;;;11.61;88.83
34177;BME280;20450;49.074;9.158;2024-03-29T10:15:00;98038.63;;;11.67;88.03
34177;BME280;20450;49.074;9.158;2024-03-29T10:17:26;98039.97;;;11.70;87.11
34177;BME280;20450;49.074;9.158;2024-03-29T10:19:51;98042.94;;;11.63;87.15
34177;BME280;20450;49.074;9.158;2024-03-29T10:22:17;98049.75;;;11.39;85.80
34177;BME280;20450;49.074;9.158;2024-03-29T10:24:45;98056.47;;;11.05;86.94
34177;BME280;20450;49.074;9.158;2024-03-29T10:27:11;98057.19;;;10.96;86.88
34177;BME280;20450;49.074;9.158;2024-03-29T10:29:37;98042.25;;;10.88;85.39
34177;BME280;20450;49.074;9.158;2024-03-29T10:32:03;98042.59;;;10.97;85.46
34177;BME280;20450;49.074;9.158;2024-03-29T10:34:30;98032.50;;;11.14;85.22
34177;BME280;20450;49.074;9.158;2024-03-29T10:36:55;98034.75;;;11.27;85.90
34177;BME280;20450;49.074;9.158;2024-03-29T10:39:22;98047.44;;;11.26;87.25
34177;BME280;20450;49.074;9.158;2024-03-29T10:41:49;98056.22;;;11.38;87.27
34177;BME280;20450;49.074;9.158;2024-03-29T10:44:20;98059.28;;;11.47;87.41
34177;BME280;20450;49.074;9.158;2024-03-29T10:46:48;98046.06;;;11.55;86.70
34177;BME280;20450;49.074;9.158;2024-03-29T10:49:17;98040.22;;;11.63;87.10
34177;BME280;20450;49.074;9.158;2024-03-29T10:51:44;98036.31;;;11.91;86.12
34177;BME280;20450;49.074;9.158;2024-03-29T10:54:11;98035.50;;;11.90;85.03
34177;BME280;20450;49.074;9.158;2024-03-29T10:56:38;98039.97;;;12.22;84.43
34177;BME280;20450;49.074;9.158;2024-03-29T10:59:21;98029.97;;;12.22;83.28
34177;BME280;20450;49.074;9.158;2024-03-29T11:01:54;98010.28;;;12.42;82.03
34177;BME280;20450;49.074;9.158;2024-03-29T11:04:29;98002.97;;;12.37;82.60
34177;BME280;20450;49.074;9.158;2024-03-29T11:07:01;97996.25;;;12.50;81.99
34177;BME280;20450;49.074;9.158;2024-03-29T11:09:33;97991.34;;;12.52;81.66
34177;BME280;20450;49.074;9.158;2024-03-29T11:12:04;97990.03;;;12.54;81.00
34177;BME280;20450;49.074;9.158;2024-03-29T11:14:37;97998.44;;;12.68;81.36
34177;BME280;20450;49.074;9.158;2024-03-29T11:17:09;97990.88;;;12.75;81.18
34177;BME280;20450;49.074;9.158;2024-03-29T11:19:35;98003.88;;;12.73;81.15
34177;BME280;20450;49.074;9.158;2024-03-29T11:22:03;97999.31;;;12.98;81.47
34177;BME280;20450;49.074;9.158;2024-03-29T11:24:31;98000.66;;;12.91;79.58
34177;BME280;20450;49.074;9.158;2024-03-29T11:26:58;98004.22;;;13.01;80.41
34177;BME280;20450;49.074;9.158;2024-03-29T11:29:24;98000.97;;;13.04;82.17
34177;BME280;20450;49.074;9.158;2024-03-29T11:31:57;98010.66;;;12.80;80.22
34177;BME280;20450;49.074;9.158;2024-03-29T11:34:23;98012.00;;;12.83;80.82
34177;BME280;20450;49.074;9.158;2024-03-29T11:36:51;98009.09;;;13.14;79.89
34177;BME280;20450;49.074;9.158;2024-03-29T11:39:20;98001.25;;;13.28;80.13
34177;BME280;20450;49.074;9.158;2024-03-29T11:41:47;97998.53;;;13.43;79.52
34177;BME280;20450;49.074;9.158;2024-03-29T11:44:15;97995.25;;;13.41;80.00
34177;BME280;20450;49.074;9.158;2024-03-29T11:46:42;98004.47;;;13.50;80.07
34177;BME280;20450;49.074;9.158;2024-03-29T11:49:10;98001.75;;;13.55;79.38
34177;BME280;20450;49.074;9.158;2024-03-29T11:51:41;98008.53;;;13.62;79.86
34177;BME280;20450;49.074;9.158;2024-03-29T11:54:07;98002.81;;;13.79;78.71
34177;BME280;20450;49.074;9.158;2024-03-29T11:56:33;98001.94;;;13.94;78.53
34177;BME280;20450;49.074;9.158;2024-03-29T11:58:59;98003.84;;;13.93;78.41
34177;BME280;20450;49.074;9.158;2024-03-29T12:01:25;98002.78;;;13.89;78.21
34177;BME280;20450;49.074;9.158;2024-03-29T12:03:51;98004.34;;;14.00;78.21
34177;BME280;20450;49.074;9.158;2024-03-29T12:06:19;98002.25;;;13.82;77.45
34177;BME280;20450;49.074;9.158;2024-03-29T12:08:46;97999.28;;;13.78;77.45
34177;BME280;20450;49.074;9.158;2024-03-29T12:11:13;98006.78;;;14.12;77.63
34177;BME280;20450;49.074;9.158;2024-03-29T12:13:39;98015.03;;;13.71;76.70
34177;BME280;20450;49.074;9.158;2024-03-29T12:16:05;98021.81;;;13.64;77.27
34177;BME280;20450;49.074;9.158;2024-03-29T12:18:32;98013.34;;;13.85;77.83
34177;BME280;20450;49.074;9.158;2024-03-29T12:20:58;98021.81;;;13.74;77.44
34177;BME280;20450;49.074;9.158;2024-03-29T12:23:26;98016.91;;;13.76;77.26
34177;BME280;20450;49.074;9.158;2024-03-29T12:25:54;98035.34;;;13.89;77.82
34177;BME280;20450;49.074;9.158;2024-03-29T12:28:21;98040.69;;;14.19;77.57
34177;BME280;20450;49.074;9.158;2024-03-29T12:30:48;98048.22;;;14.42;77.98
34177;BME280;20450;49.074;9.158;2024-03-29T12:33:15;98047.59;;;14.65;77.17
34177;BME280;20450;49.074;9.158;2024-03-29T12:35:43;98057.16;;;14.58;76.17
34177;BME280;20450;49.074;9.158;2024-03-29T12:38:11;98059.50;;;14.74;77.50
34177;BME280;20450;49.074;9.158;2024-03-29T12:40:41;98055.53;;;15.05;76.34
34177;BME280;20450;49.074;9.158;2024-03-29T12:43:10;98061.81;;;15.34;75.84
34177;BME280;20450;49.074;9.158;2024-03-29T12:45:40;98079.13;;;15.53;74.85
34177;BME280;20450;49.074;9.158;2024-03-29T12:48:11;98078.41;;;15.77;73.65
34177;BME280;20450;49.074;9.158;2024-03-29T12:50:39;98071.41;;;15.94;74.21
34177;BME280;20450;49.074;9.158;2024-03-29T12:53:08;98056.59;;;16.05;72.63
34177;BME280;20450;49.074;9.158;2024-03-29T12:55:46;98043.34;;;15.94;69.05
34177;BME280;20450;49.074;9.158;2024-03-29T12:58:20;98062.53;;;15.84;71.35
34177;BME280;20450;49.074;9.158;2024-03-29T13:00:46;98024.06;;;15.66;70.10